Sandpiper — WDG2173 — position and weather

sailwx.info

Track history (hours):
 
Tides and Currents Weather Stations Pressure Air Temp Water Temp Dewpoint Dewpoint Depression Visibility Wind Speed Wind Dir Waves Ship Positions

Sandpiper

Owner: Higman Barge Lines, Inc., Orange, TX. More information available from US FCC via Universal Licensing System and Coast Guard Vessel Documentation Center.

Last reported at 2018-Apr-26 03:14 UTC. Time now 2018-Apr-27 02:25 UTC.
Position N 29°12' W 095°03'.

Length 206 m; draft 2.6 m.

Type: . MMSI: 367512920.

Date/timePositionNaut miles runAvg speedWind from/ knotsBaromVisibWave heightAir tempDewpointWater temp
2018-Apr-26 03:14N 29°12' W 095°03'1 1.5
2018-Apr-26 02:50N 29°12' W 095°03'1 3.0
2018-Apr-26 02:30N 29°13' W 095°02'2 4.0
2018-Apr-26 01:59N 29°15' W 095°00'2 5.1
2018-Apr-26 01:30N 29°17' W 094°59'3 4.8
2018-Apr-26 00:47N 29°17' W 094°55'1 4.5
2018-Apr-26 00:28N 29°18' W 094°53'2 5.1
2018-Apr-25 23:59N 29°19' W 094°51'6 4.6
2018-Apr-25 22:42N 29°25' W 094°50'1 6.0
2018-Apr-25 22:29N 29°26' W 094°50'3 6.0
2018-Apr-25 22:01N 29°29' W 094°52'3 6.0
2018-Apr-25 21:30N 29°32' W 094°54'3 6.0
2018-Apr-25 21:01N 29°34' W 094°55'3 6.8
2018-Apr-25 20:30N 29°37' W 094°57'3 7.0
2018-Apr-25 20:01N 29°40' W 094°59'3 6.2
2018-Apr-25 19:30N 29°43' W 095°01'3 6.0
2018-Apr-25 19:00N 29°45' W 095°04'2 3.8
2018-Apr-25 18:30N 29°45' W 095°06'3 0.6
2018-Apr-25 12:46N 29°44' W 095°10'0 0.0
2018-Apr-25 12:16N 29°44' W 095°10'0 0.0
2018-Apr-25 11:58N 29°44' W 095°10'0 0.0
2018-Apr-25 11:22N 29°44' W 095°10'0 0.0
2018-Apr-25 10:43N 29°44' W 095°10'0 0.0
2018-Apr-25 10:07N 29°44' W 095°10'0 0.0
2018-Apr-25 07:40N 29°44' W 095°10'0 0.0
2018-Apr-25 07:25N 29°44' W 095°10'0 0.7
2018-Apr-25 06:58N 29°45' W 095°10'0 0.0
2018-Apr-24 21:48N 29°44' W 095°10'0 0.1
2018-Apr-24 19:15N 29°45' W 095°10'1 4.9
2018-Apr-24 19:00N 29°44' W 095°09'3 6.8
2018-Apr-24 18:30N 29°46' W 095°05'2 3.0
2018-Apr-24 17:58N 29°47' W 095°04'1 1.2
2018-Apr-24 17:30N 29°47' W 095°05'2 1.9
2018-Apr-24 16:30N 29°46' W 095°06'2 4.2
2018-Apr-24 15:56N 29°47' W 095°04'0 0.1
2018-Apr-24 15:17N 29°47' W 095°04'0 0.0
2018-Apr-24 14:58N 29°47' W 095°04'0 0.4
2018-Apr-24 14:27N 29°47' W 095°04'0 0.4
2018-Apr-24 13:59N 29°47' W 095°04'0 0.0
2018-Apr-24 13:29N 29°47' W 095°04'0 0.0
2018-Apr-24 12:52N 29°47' W 095°04'0 0.0
2018-Apr-24 09:11N 29°47' W 095°04'0 0.5
2018-Apr-24 09:00N 29°47' W 095°04'0 0.0
2018-Apr-24 08:10N 29°47' W 095°04'0 0.7
2018-Apr-24 08:00N 29°47' W 095°04'0 0.0
2018-Apr-24 02:12N 29°47' W 095°04'0 0.0
2018-Apr-23 21:18N 29°47' W 095°04'1 1.6
2018-Apr-23 20:53N 29°47' W 095°05'1 0.5
2018-Apr-23 18:50N 29°46' W 095°06'2 5.1
2018-Apr-23 18:29N 29°47' W 095°04'2 3.5
2018-Apr-23 17:59N 29°46' W 095°05'0 0.0
2018-Apr-23 14:49N 29°46' W 095°06'2 5.0
2018-Apr-23 14:30N 29°47' W 095°04'0 0.6
2018-Apr-23 13:59N 29°47' W 095°04'0 0.0
2018-Apr-23 13:30N 29°47' W 095°04'0 0.3
2018-Apr-23 13:01N 29°47' W 095°04'0 0.0
2018-Apr-23 12:29N 29°47' W 095°04'0 0.0
2018-Apr-23 07:11N 29°47' W 095°04'0 0.0
2018-Apr-23 06:56N 29°47' W 095°04'0 0.0
2018-Apr-23 06:25N 29°47' W 095°04'0 0.0
2018-Apr-23 05:33N 29°47' W 095°04'0 0.0
2018-Apr-23 00:53N 29°47' W 095°04'0 0.6
2018-Apr-23 00:14N 29°47' W 095°04'0 1.8
2018-Apr-23 00:01N 29°47' W 095°04'0 0.3
2018-Apr-22 23:27N 29°47' W 095°04'0 0.0
2018-Apr-22 23:00N 29°47' W 095°04'0 0.1
2018-Apr-22 22:31N 29°47' W 095°04'0 0.4
2018-Apr-22 21:57N 29°47' W 095°04'0 0.6
2018-Apr-22 21:31N 29°47' W 095°04'0 0.0
2018-Apr-22 21:00N 29°47' W 095°04'0 0.0
2018-Apr-22 20:30N 29°47' W 095°04'0 0.3
2018-Apr-22 20:00N 29°47' W 095°04'0 0.0
2018-Apr-22 19:31N 29°47' W 095°04'0 0.0
2018-Apr-22 19:00N 29°47' W 095°04'0 0.3
2018-Apr-22 18:29N 29°47' W 095°04'0 0.0
2018-Apr-22 18:00N 29°47' W 095°04'0 0.0
2018-Apr-22 17:24N 29°47' W 095°04'0 0.0
2018-Apr-22 16:53N 29°47' W 095°04'0 0.0
2018-Apr-22 16:28N 29°47' W 095°04'0 0.0
2018-Apr-22 15:58N 29°47' W 095°04'0 0.0
2018-Apr-22 15:26N 29°47' W 095°04'0 0.0
2018-Apr-22 14:45N 29°47' W 095°04'0 0.0
2018-Apr-22 14:30N 29°47' W 095°04'0 0.0
2018-Apr-22 13:39N 29°47' W 095°04'0 0.0
2018-Apr-22 13:27N 29°47' W 095°04'0 0.0
2018-Apr-22 12:59N 29°47' W 095°04'0 0.0
2018-Apr-22 12:31N 29°47' W 095°04'0 0.0
2018-Apr-22 10:11N 29°47' W 095°04'0 0.3
2018-Apr-22 09:59N 29°47' W 095°04'0 0.0
2018-Apr-22 01:44N 29°47' W 095°04'0 0.0
2018-Apr-22 01:28N 29°47' W 095°04'0 0.0
2018-Apr-21 21:45N 29°47' W 095°04'0 0.0
2018-Apr-21 21:11N 29°47' W 095°04'0 0.0
2018-Apr-21 20:57N 29°47' W 095°04'1 1.5
2018-Apr-21 20:29N 29°47' W 095°05'2 4.6
2018-Apr-21 20:01N 29°45' W 095°06'3 6.1
2018-Apr-21 19:30N 29°45' W 095°10'0 0.4
2018-Apr-21 18:59N 29°44' W 095°10'0 0.0
2018-Apr-21 17:58N 29°44' W 095°10'1 3.0
2018-Apr-21 17:30N 29°44' W 095°08'3 6.2
2018-Apr-21 17:00N 29°46' W 095°05'2 3.4
2018-Apr-21 16:29N 29°47' W 095°04'0 0.0
2018-Apr-21 15:18N 29°47' W 095°04'0 0.0
2018-Apr-21 13:26N 29°47' W 095°04'0 0.0
2018-Apr-21 06:37N 29°47' W 095°04'0 0.0
2018-Apr-21 06:28N 29°47' W 095°04'0 0.0
2018-Apr-21 05:56N 29°47' W 095°04'0 0.0
2018-Apr-21 04:32N 29°47' W 095°04'0 0.0
2018-Apr-21 04:13N 29°47' W 095°04'0 0.0
2018-Apr-21 03:59N 29°47' W 095°04'0 0.0
2018-Apr-21 03:28N 29°47' W 095°04'0 0.0
2018-Apr-21 03:00N 29°47' W 095°04'0 0.0
2018-Apr-21 02:02N 29°47' W 095°04'0 0.0
2018-Apr-21 01:44N 29°47' W 095°04'0 0.0
2018-Apr-20 23:47N 29°47' W 095°04'0 0.0
2018-Apr-20 23:31N 29°47' W 095°04'0 0.0
2018-Apr-20 22:51N 29°47' W 095°04'0 0.0
2018-Apr-20 22:23N 29°47' W 095°04'0 0.0
2018-Apr-20 21:43N 29°47' W 095°04'0 0.0
2018-Apr-20 21:29N 29°47' W 095°04'2 3.3
2018-Apr-20 20:59N 29°46' W 095°05'0 0.2
2018-Apr-20 19:30N 29°46' W 095°06'2 3.6
2018-Apr-20 18:59N 29°47' W 095°04'1 2.0
2018-Apr-20 18:31N 29°46' W 095°05'3 5.6
2018-Apr-20 18:00N 29°44' W 095°07'4 0.2
2018-Apr-19 16:05N 29°45' W 095°11'0 3.8
2018-Apr-19 16:00N 29°45' W 095°11'2 3.8
2018-Apr-19 15:29N 29°44' W 095°09'2 4.0
2018-Apr-19 15:00N 29°44' W 095°07'2 4.1
2018-Apr-19 14:30N 29°46' W 095°05'1 2.5
2018-Apr-19 14:00N 29°47' W 095°04'0 0.1
2018-Apr-19 13:26N 29°47' W 095°04'0 0.0
2018-Apr-19 12:58N 29°47' W 095°04'0 0.1
2018-Apr-19 11:40N 29°47' W 095°04'1 5.4
2018-Apr-19 11:29N 29°46' W 095°05'2 4.1
2018-Apr-19 11:00N 29°45' W 095°07'0 0.0
2018-Apr-19 10:30N 29°45' W 095°07'0 0.0
2018-Apr-19 10:00N 29°45' W 095°07'0 0.0
2018-Apr-19 09:30N 29°45' W 095°07'0 0.0
2018-Apr-19 09:00N 29°45' W 095°07'0 0.0
2018-Apr-19 08:30N 29°45' W 095°07'0 0.0
2018-Apr-19 08:00N 29°45' W 095°07'0 0.0
2018-Apr-19 07:30N 29°45' W 095°07'0 0.0
2018-Apr-19 07:00N 29°45' W 095°07'0 0.0
2018-Apr-19 06:30N 29°45' W 095°07'2 4.1
2018-Apr-19 06:00N 29°46' W 095°05'1 0.2
2018-Apr-19 00:36N 29°47' W 095°04'0 0.1
2018-Apr-19 00:30N 29°47' W 095°04'0 0.0
2018-Apr-19 00:00N 29°47' W 095°04'0 0.0
2018-Apr-18 23:30N 29°47' W 095°04'0 0.0
2018-Apr-18 23:00N 29°47' W 095°04'0 0.0
2018-Apr-18 22:30N 29°47' W 095°04'0 0.0
2018-Apr-18 22:00N 29°47' W 095°04'0 0.0
2018-Apr-18 21:30N 29°47' W 095°04'0 0.0
2018-Apr-18 21:00N 29°47' W 095°04'0 0.0
2018-Apr-18 20:30N 29°47' W 095°04'0 0.0
2018-Apr-18 19:59N 29°47' W 095°04'0 0.0
2018-Apr-18 19:30N 29°47' W 095°04'0 0.0
2018-Apr-18 19:00N 29°47' W 095°04'0 0.0
2018-Apr-18 18:24N 29°47' W 095°04'0 0.0
2018-Apr-18 18:00N 29°47' W 095°04'0 0.0
2018-Apr-18 17:26N 29°47' W 095°04'0 0.0
2018-Apr-18 17:00N 29°47' W 095°04'0 0.0
2018-Apr-18 16:30N 29°47' W 095°04'0 0.0
2018-Apr-18 16:00N 29°47' W 095°04'0 0.0
2018-Apr-18 15:28N 29°47' W 095°04'0 0.0
2018-Apr-18 14:59N 29°47' W 095°04'0 0.0
2018-Apr-18 14:30N 29°47' W 095°04'0 0.0
2018-Apr-18 13:57N 29°47' W 095°04'0 0.0
2018-Apr-18 13:30N 29°47' W 095°04'0 0.0
2018-Apr-18 12:59N 29°47' W 095°04'0 0.0
2018-Apr-18 12:30N 29°47' W 095°04'0 0.0
2018-Apr-18 11:45N 29°47' W 095°04'0 0.0
2018-Apr-18 08:04N 29°47' W 095°04'0 0.0
2018-Apr-18 07:53N 29°47' W 095°04'0 0.0
2018-Apr-18 07:26N 29°47' W 095°04'0 0.0
2018-Apr-18 07:00N 29°47' W 095°04'0 0.0
2018-Apr-18 04:58N 29°47' W 095°04'0 0.0
2018-Apr-18 04:29N 29°47' W 095°04'0 0.1
2018-Apr-18 03:58N 29°47' W 095°04'0 0.1
2018-Apr-18 03:30N 29°47' W 095°04'0 0.0
2018-Apr-18 03:00N 29°47' W 095°04'0 0.0
2018-Apr-18 02:19N 29°47' W 095°04'1 3.4
2018-Apr-18 02:00N 29°46' W 095°05'1 2.1
2018-Apr-18 01:30N 29°45' W 095°06'0 0.0
2018-Apr-18 01:00N 29°45' W 095°06'1 1.3
2018-Apr-18 00:30N 29°46' W 095°05'1 2.1
2018-Apr-17 23:52N 29°47' W 095°04'0 0.0
2018-Apr-17 23:30N 29°47' W 095°04'0 0.0
2018-Apr-17 23:00N 29°47' W 095°04'0 0.8
2018-Apr-17 22:30N 29°47' W 095°04'0 0.7
2018-Apr-17 21:57N 29°47' W 095°04'0 0.0
2018-Apr-17 21:28N 29°47' W 095°04'0 0.2
2018-Apr-17 20:59N 29°47' W 095°04'0 0.1
2018-Apr-17 20:30N 29°47' W 095°04'0 0.0
2018-Apr-17 20:00N 29°47' W 095°04'0 0.0
2018-Apr-17 19:30N 29°47' W 095°04'0 0.0
2018-Apr-17 19:00N 29°47' W 095°04'0 0.0
2018-Apr-17 18:30N 29°47' W 095°04'0 0.8
2018-Apr-17 18:00N 29°47' W 095°04'0 0.7
2018-Apr-17 17:30N 29°47' W 095°04'0 0.0
2018-Apr-17 16:59N 29°47' W 095°04'0 0.0
2018-Apr-17 16:30N 29°47' W 095°04'0 0.7
2018-Apr-17 16:00N 29°47' W 095°04'0 0.0
2018-Apr-17 15:19N 29°47' W 095°04'0 0.2
2018-Apr-17 15:00N 29°47' W 095°04'0 0.0
2018-Apr-17 14:27N 29°47' W 095°04'0 0.0
2018-Apr-17 14:00N 29°47' W 095°04'0 0.0
2018-Apr-17 13:30N 29°47' W 095°04'0 0.0
2018-Apr-17 13:00N 29°47' W 095°04'0 0.0
2018-Apr-17 12:30N 29°47' W 095°04'0 0.7
2018-Apr-17 11:57N 29°47' W 095°04'0 0.0
2018-Apr-17 11:27N 29°47' W 095°04'0 0.0
2018-Apr-17 11:00N 29°47' W 095°04'0 0.0
2018-Apr-17 10:23N 29°47' W 095°04'0 0.0
2018-Apr-17 09:57N 29°47' W 095°04'0 0.0
2018-Apr-17 09:26N 29°47' W 095°04'0 0.0
2018-Apr-17 08:59N 29°47' W 095°04'0 0.0
2018-Apr-17 08:29N 29°47' W 095°04'0 0.0
2018-Apr-17 08:00N 29°47' W 095°04'0 0.0
2018-Apr-17 07:28N 29°47' W 095°04'0 0.0
2018-Apr-17 06:59N 29°47' W 095°04'0 0.0
2018-Apr-17 06:30N 29°47' W 095°04'0 0.0
2018-Apr-17 06:00N 29°47' W 095°04'0 0.0
2018-Apr-17 05:29N 29°47' W 095°04'0 0.4
2018-Apr-17 05:00N 29°47' W 095°04'0 0.4
2018-Apr-17 04:30N 29°47' W 095°04'0 0.0
2018-Apr-17 03:57N 29°47' W 095°04'0 0.0
2018-Apr-17 03:29N 29°47' W 095°04'0 0.0
2018-Apr-17 03:00N 29°47' W 095°04'0 0.0
2018-Apr-17 02:22N 29°47' W 095°04'0 0.0
2018-Apr-17 00:47N 29°47' W 095°04'0 0.0
2018-Apr-17 00:30N 29°47' W 095°04'0 0.0
2018-Apr-16 23:55N 29°47' W 095°04'0 0.3
2018-Apr-16 23:29N 29°47' W 095°04'0 0.7
2018-Apr-16 23:00N 29°47' W 095°05'1 2.3
2018-Apr-16 22:30N 29°46' W 095°04'3 6.2
2018-Apr-16 22:00N 29°44' W 095°02'3 6.4
2018-Apr-16 21:30N 29°41' W 094°59'4 7.4
2018-Apr-16 21:00N 29°38' W 094°58'4 7.2
2018-Apr-16 20:30N 29°35' W 094°56'4 7.4
2018-Apr-16 20:00N 29°32' W 094°53'4 7.3
2018-Apr-16 19:30N 29°28' W 094°51'27 4.9
2018-Apr-16 13:55N 29°07' W 095°11'3 5.1
2018-Apr-16 13:17N 29°04' W 095°13'  
Track history (hours):
 
Tides and Currents Weather Stations Pressure Air Temp Water Temp Dewpoint Dewpoint Depression Visibility Wind Speed Wind Dir Waves Ship Positions

Sandpiper

Owner: Higman Barge Lines, Inc., Orange, TX. More information available from US FCC via Universal Licensing System and Coast Guard Vessel Documentation Center.

Last reported at 2018-Apr-26 03:14 UTC. Time now 2018-Apr-27 02:25 UTC.
Position N 29°12' W 095°03'.

Length 206 m; draft 2.6 m.

Type: . MMSI: 367512920.

Date/timePositionNaut miles runAvg speedWind from/ knotsBaromVisibWave heightAir tempDewpointWater temp
2018-Apr-26 03:14N 29°12' W 095°03'1 1.5
2018-Apr-26 02:50N 29°12' W 095°03'1 3.0
2018-Apr-26 02:30N 29°13' W 095°02'2 4.0
2018-Apr-26 01:59N 29°15' W 095°00'2 5.1
2018-Apr-26 01:30N 29°17' W 094°59'3 4.8
2018-Apr-26 00:47N 29°17' W 094°55'1 4.5
2018-Apr-26 00:28N 29°18' W 094°53'2 5.1
2018-Apr-25 23:59N 29°19' W 094°51'6 4.6
2018-Apr-25 22:42N 29°25' W 094°50'1 6.0
2018-Apr-25 22:29N 29°26' W 094°50'3 6.0
2018-Apr-25 22:01N 29°29' W 094°52'3 6.0
2018-Apr-25 21:30N 29°32' W 094°54'3 6.0
2018-Apr-25 21:01N 29°34' W 094°55'3 6.8
2018-Apr-25 20:30N 29°37' W 094°57'3 7.0
2018-Apr-25 20:01N 29°40' W 094°59'3 6.2
2018-Apr-25 19:30N 29°43' W 095°01'3 6.0
2018-Apr-25 19:00N 29°45' W 095°04'2 3.8
2018-Apr-25 18:30N 29°45' W 095°06'3 0.6
2018-Apr-25 12:46N 29°44' W 095°10'0 0.0
2018-Apr-25 12:16N 29°44' W 095°10'0 0.0
2018-Apr-25 11:58N 29°44' W 095°10'0 0.0
2018-Apr-25 11:22N 29°44' W 095°10'0 0.0
2018-Apr-25 10:43N 29°44' W 095°10'0 0.0
2018-Apr-25 10:07N 29°44' W 095°10'0 0.0
2018-Apr-25 07:40N 29°44' W 095°10'0 0.0
2018-Apr-25 07:25N 29°44' W 095°10'0 0.7
2018-Apr-25 06:58N 29°45' W 095°10'0 0.0
2018-Apr-24 21:48N 29°44' W 095°10'0 0.1
2018-Apr-24 19:15N 29°45' W 095°10'1 4.9
2018-Apr-24 19:00N 29°44' W 095°09'3 6.8
2018-Apr-24 18:30N 29°46' W 095°05'2 3.0
2018-Apr-24 17:58N 29°47' W 095°04'1 1.2
2018-Apr-24 17:30N 29°47' W 095°05'2 1.9
2018-Apr-24 16:30N 29°46' W 095°06'2 4.2
2018-Apr-24 15:56N 29°47' W 095°04'0 0.1
2018-Apr-24 15:17N 29°47' W 095°04'0 0.0
2018-Apr-24 14:58N 29°47' W 095°04'0 0.4
2018-Apr-24 14:27N 29°47' W 095°04'0 0.4
2018-Apr-24 13:59N 29°47' W 095°04'0 0.0
2018-Apr-24 13:29N 29°47' W 095°04'0 0.0
2018-Apr-24 12:52N 29°47' W 095°04'0 0.0
2018-Apr-24 09:11N 29°47' W 095°04'0 0.5
2018-Apr-24 09:00N 29°47' W 095°04'0 0.0
2018-Apr-24 08:10N 29°47' W 095°04'0 0.7
2018-Apr-24 08:00N 29°47' W 095°04'0 0.0
2018-Apr-24 02:12N 29°47' W 095°04'0 0.0
2018-Apr-23 21:18N 29°47' W 095°04'1 1.6
2018-Apr-23 20:53N 29°47' W 095°05'1 0.5
2018-Apr-23 18:50N 29°46' W 095°06'2 5.1
2018-Apr-23 18:29N 29°47' W 095°04'2 3.5
2018-Apr-23 17:59N 29°46' W 095°05'0 0.0
2018-Apr-23 14:49N 29°46' W 095°06'2 5.0
2018-Apr-23 14:30N 29°47' W 095°04'0 0.6
2018-Apr-23 13:59N 29°47' W 095°04'0 0.0
2018-Apr-23 13:30N 29°47' W 095°04'0 0.3
2018-Apr-23 13:01N 29°47' W 095°04'0 0.0
2018-Apr-23 12:29N 29°47' W 095°04'0 0.0
2018-Apr-23 07:11N 29°47' W 095°04'0 0.0
2018-Apr-23 06:56N 29°47' W 095°04'0 0.0
2018-Apr-23 06:25N 29°47' W 095°04'0 0.0
2018-Apr-23 05:33N 29°47' W 095°04'0 0.0
2018-Apr-23 00:53N 29°47' W 095°04'0 0.6
2018-Apr-23 00:14N 29°47' W 095°04'0 1.8
2018-Apr-23 00:01N 29°47' W 095°04'0 0.3
2018-Apr-22 23:27N 29°47' W 095°04'0 0.0
2018-Apr-22 23:00N 29°47' W 095°04'0 0.1
2018-Apr-22 22:31N 29°47' W 095°04'0 0.4
2018-Apr-22 21:57N 29°47' W 095°04'0 0.6
2018-Apr-22 21:31N 29°47' W 095°04'0 0.0
2018-Apr-22 21:00N 29°47' W 095°04'0 0.0
2018-Apr-22 20:30N 29°47' W 095°04'0 0.3
2018-Apr-22 20:00N 29°47' W 095°04'0 0.0
2018-Apr-22 19:31N 29°47' W 095°04'0 0.0
2018-Apr-22 19:00N 29°47' W 095°04'0 0.3
2018-Apr-22 18:29N 29°47' W 095°04'0 0.0
2018-Apr-22 18:00N 29°47' W 095°04'0 0.0
2018-Apr-22 17:24N 29°47' W 095°04'0 0.0
2018-Apr-22 16:53N 29°47' W 095°04'0 0.0
2018-Apr-22 16:28N 29°47' W 095°04'0 0.0
2018-Apr-22 15:58N 29°47' W 095°04'0 0.0
2018-Apr-22 15:26N 29°47' W 095°04'0 0.0
2018-Apr-22 14:45N 29°47' W 095°04'0 0.0
2018-Apr-22 14:30N 29°47' W 095°04'0 0.0
2018-Apr-22 13:39N 29°47' W 095°04'0 0.0
2018-Apr-22 13:27N 29°47' W 095°04'0 0.0
2018-Apr-22 12:59N 29°47' W 095°04'0 0.0
2018-Apr-22 12:31N 29°47' W 095°04'0 0.0
2018-Apr-22 10:11N 29°47' W 095°04'0 0.3
2018-Apr-22 09:59N 29°47' W 095°04'0 0.0
2018-Apr-22 01:44N 29°47' W 095°04'0 0.0
2018-Apr-22 01:28N 29°47' W 095°04'0 0.0
2018-Apr-21 21:45N 29°47' W 095°04'0 0.0
2018-Apr-21 21:11N 29°47' W 095°04'0 0.0
2018-Apr-21 20:57N 29°47' W 095°04'1 1.5
2018-Apr-21 20:29N 29°47' W 095°05'2 4.6
2018-Apr-21 20:01N 29°45' W 095°06'3 6.1
2018-Apr-21 19:30N 29°45' W 095°10'0 0.4
2018-Apr-21 18:59N 29°44' W 095°10'0 0.0
2018-Apr-21 17:58N 29°44' W 095°10'1 3.0
2018-Apr-21 17:30N 29°44' W 095°08'3 6.2
2018-Apr-21 17:00N 29°46' W 095°05'2 3.4
2018-Apr-21 16:29N 29°47' W 095°04'0 0.0
2018-Apr-21 15:18N 29°47' W 095°04'0 0.0
2018-Apr-21 13:26N 29°47' W 095°04'0 0.0
2018-Apr-21 06:37N 29°47' W 095°04'0 0.0
2018-Apr-21 06:28N 29°47' W 095°04'0 0.0
2018-Apr-21 05:56N 29°47' W 095°04'0 0.0
2018-Apr-21 04:32N 29°47' W 095°04'0 0.0
2018-Apr-21 04:13N 29°47' W 095°04'0 0.0
2018-Apr-21 03:59N 29°47' W 095°04'0 0.0
2018-Apr-21 03:28N 29°47' W 095°04'0 0.0
2018-Apr-21 03:00N 29°47' W 095°04'0 0.0
2018-Apr-21 02:02N 29°47' W 095°04'0 0.0
2018-Apr-21 01:44N 29°47' W 095°04'0 0.0
2018-Apr-20 23:47N 29°47' W 095°04'0 0.0
2018-Apr-20 23:31N 29°47' W 095°04'0 0.0
2018-Apr-20 22:51N 29°47' W 095°04'0 0.0
2018-Apr-20 22:23N 29°47' W 095°04'0 0.0
2018-Apr-20 21:43N 29°47' W 095°04'0 0.0
2018-Apr-20 21:29N 29°47' W 095°04'2 3.3
2018-Apr-20 20:59N 29°46' W 095°05'0 0.2
2018-Apr-20 19:30N 29°46' W 095°06'2 3.6
2018-Apr-20 18:59N 29°47' W 095°04'1 2.0
2018-Apr-20 18:31N 29°46' W 095°05'3 5.6
2018-Apr-20 18:00N 29°44' W 095°07'4 0.2
2018-Apr-19 16:05N 29°45' W 095°11'0 3.8
2018-Apr-19 16:00N 29°45' W 095°11'2 3.8
2018-Apr-19 15:29N 29°44' W 095°09'2 4.0
2018-Apr-19 15:00N 29°44' W 095°07'2 4.1
2018-Apr-19 14:30N 29°46' W 095°05'1 2.5
2018-Apr-19 14:00N 29°47' W 095°04'0 0.1
2018-Apr-19 13:26N 29°47' W 095°04'0 0.0
2018-Apr-19 12:58N 29°47' W 095°04'0 0.1
2018-Apr-19 11:40N 29°47' W 095°04'1 5.4
2018-Apr-19 11:29N 29°46' W 095°05'2 4.1
2018-Apr-19 11:00N 29°45' W 095°07'0 0.0
2018-Apr-19 10:30N 29°45' W 095°07'0 0.0
2018-Apr-19 10:00N 29°45' W 095°07'0 0.0
2018-Apr-19 09:30N 29°45' W 095°07'0 0.0
2018-Apr-19 09:00N 29°45' W 095°07'0 0.0
2018-Apr-19 08:30N 29°45' W 095°07'0 0.0
2018-Apr-19 08:00N 29°45' W 095°07'0 0.0
2018-Apr-19 07:30N 29°45' W 095°07'0 0.0
2018-Apr-19 07:00N 29°45' W 095°07'0 0.0
2018-Apr-19 06:30N 29°45' W 095°07'2 4.1
2018-Apr-19 06:00N 29°46' W 095°05'1 0.2
2018-Apr-19 00:36N 29°47' W 095°04'0 0.1
2018-Apr-19 00:30N 29°47' W 095°04'0 0.0
2018-Apr-19 00:00N 29°47' W 095°04'0 0.0
2018-Apr-18 23:30N 29°47' W 095°04'0 0.0
2018-Apr-18 23:00N 29°47' W 095°04'0 0.0
2018-Apr-18 22:30N 29°47' W 095°04'0 0.0
2018-Apr-18 22:00N 29°47' W 095°04'0 0.0
2018-Apr-18 21:30N 29°47' W 095°04'0 0.0
2018-Apr-18 21:00N 29°47' W 095°04'0 0.0
2018-Apr-18 20:30N 29°47' W 095°04'0 0.0
2018-Apr-18 19:59N 29°47' W 095°04'0 0.0
2018-Apr-18 19:30N 29°47' W 095°04'0 0.0
2018-Apr-18 19:00N 29°47' W 095°04'0 0.0
2018-Apr-18 18:24N 29°47' W 095°04'0 0.0
2018-Apr-18 18:00N 29°47' W 095°04'0 0.0
2018-Apr-18 17:26N 29°47' W 095°04'0 0.0
2018-Apr-18 17:00N 29°47' W 095°04'0 0.0
2018-Apr-18 16:30N 29°47' W 095°04'0 0.0
2018-Apr-18 16:00N 29°47' W 095°04'0 0.0
2018-Apr-18 15:28N 29°47' W 095°04'0 0.0
2018-Apr-18 14:59N 29°47' W 095°04'0 0.0
2018-Apr-18 14:30N 29°47' W 095°04'0 0.0
2018-Apr-18 13:57N 29°47' W 095°04'0 0.0
2018-Apr-18 13:30N 29°47' W 095°04'0 0.0
2018-Apr-18 12:59N 29°47' W 095°04'0 0.0
2018-Apr-18 12:30N 29°47' W 095°04'0 0.0
2018-Apr-18 11:45N 29°47' W 095°04'0 0.0
2018-Apr-18 08:04N 29°47' W 095°04'0 0.0
2018-Apr-18 07:53N 29°47' W 095°04'0 0.0
2018-Apr-18 07:26N 29°47' W 095°04'0 0.0
2018-Apr-18 07:00N 29°47' W 095°04'0 0.0
2018-Apr-18 04:58N 29°47' W 095°04'0 0.0
2018-Apr-18 04:29N 29°47' W 095°04'0 0.1
2018-Apr-18 03:58N 29°47' W 095°04'0 0.1
2018-Apr-18 03:30N 29°47' W 095°04'0 0.0
2018-Apr-18 03:00N 29°47' W 095°04'0 0.0
2018-Apr-18 02:19N 29°47' W 095°04'1 3.4
2018-Apr-18 02:00N 29°46' W 095°05'1 2.1
2018-Apr-18 01:30N 29°45' W 095°06'0 0.0
2018-Apr-18 01:00N 29°45' W 095°06'1 1.3
2018-Apr-18 00:30N 29°46' W 095°05'1 2.1
2018-Apr-17 23:52N 29°47' W 095°04'0 0.0
2018-Apr-17 23:30N 29°47' W 095°04'0 0.0
2018-Apr-17 23:00N 29°47' W 095°04'0 0.8
2018-Apr-17 22:30N 29°47' W 095°04'0 0.7
2018-Apr-17 21:57N 29°47' W 095°04'0 0.0
2018-Apr-17 21:28N 29°47' W 095°04'0 0.2
2018-Apr-17 20:59N 29°47' W 095°04'0 0.1
2018-Apr-17 20:30N 29°47' W 095°04'0 0.0
2018-Apr-17 20:00N 29°47' W 095°04'0 0.0
2018-Apr-17 19:30N 29°47' W 095°04'0 0.0
2018-Apr-17 19:00N 29°47' W 095°04'0 0.0
2018-Apr-17 18:30N 29°47' W 095°04'0 0.8
2018-Apr-17 18:00N 29°47' W 095°04'0 0.7
2018-Apr-17 17:30N 29°47' W 095°04'0 0.0
2018-Apr-17 16:59N 29°47' W 095°04'0 0.0
2018-Apr-17 16:30N 29°47' W 095°04'0 0.7
2018-Apr-17 16:00N 29°47' W 095°04'0 0.0
2018-Apr-17 15:19N 29°47' W 095°04'0 0.2
2018-Apr-17 15:00N 29°47' W 095°04'0 0.0
2018-Apr-17 14:27N 29°47' W 095°04'0 0.0
2018-Apr-17 14:00N 29°47' W 095°04'0 0.0
2018-Apr-17 13:30N 29°47' W 095°04'0 0.0
2018-Apr-17 13:00N 29°47' W 095°04'0 0.0
2018-Apr-17 12:30N 29°47' W 095°04'0 0.7
2018-Apr-17 11:57N 29°47' W 095°04'0 0.0
2018-Apr-17 11:27N 29°47' W 095°04'0 0.0
2018-Apr-17 11:00N 29°47' W 095°04'0 0.0
2018-Apr-17 10:23N 29°47' W 095°04'0 0.0
2018-Apr-17 09:57N 29°47' W 095°04'0 0.0
2018-Apr-17 09:26N 29°47' W 095°04'0 0.0
2018-Apr-17 08:59N 29°47' W 095°04'0 0.0
2018-Apr-17 08:29N 29°47' W 095°04'0 0.0
2018-Apr-17 08:00N 29°47' W 095°04'0 0.0
2018-Apr-17 07:28N 29°47' W 095°04'0 0.0
2018-Apr-17 06:59N 29°47' W 095°04'0 0.0
2018-Apr-17 06:30N 29°47' W 095°04'0 0.0
2018-Apr-17 06:00N 29°47' W 095°04'0 0.0
2018-Apr-17 05:29N 29°47' W 095°04'0 0.4
2018-Apr-17 05:00N 29°47' W 095°04'0 0.4
2018-Apr-17 04:30N 29°47' W 095°04'0 0.0
2018-Apr-17 03:57N 29°47' W 095°04'0 0.0
2018-Apr-17 03:29N 29°47' W 095°04'0 0.0
2018-Apr-17 03:00N 29°47' W 095°04'0 0.0
2018-Apr-17 02:22N 29°47' W 095°04'0 0.0
2018-Apr-17 00:47N 29°47' W 095°04'0 0.0
2018-Apr-17 00:30N 29°47' W 095°04'0 0.0
2018-Apr-16 23:55N 29°47' W 095°04'0 0.3
2018-Apr-16 23:29N 29°47' W 095°04'0 0.7
2018-Apr-16 23:00N 29°47' W 095°05'1 2.3
2018-Apr-16 22:30N 29°46' W 095°04'3 6.2
2018-Apr-16 22:00N 29°44' W 095°02'3 6.4
2018-Apr-16 21:30N 29°41' W 094°59'4 7.4
2018-Apr-16 21:00N 29°38' W 094°58'4 7.2
2018-Apr-16 20:30N 29°35' W 094°56'4 7.4
2018-Apr-16 20:00N 29°32' W 094°53'4 7.3
2018-Apr-16 19:30N 29°28' W 094°51'27 4.9
2018-Apr-16 13:55N 29°07' W 095°11'3 5.1
2018-Apr-16 13:17N 29°04' W 095°13'  

Dump ship's entire track history